createdAt,value
2022-12-29T10:23:44.823Z,17.43
2022-12-29T10:28:44.718Z,12.73
2022-12-29T10:33:42.848Z,10.37
2022-12-29T10:38:44.647Z,9.77
2022-12-29T10:43:45.728Z,8.20
2022-12-29T10:48:39.708Z,6.63
2022-12-29T10:53:40.791Z,5.77
2022-12-29T10:58:35.863Z,6.30
2022-12-29T11:03:52.628Z,6.37
2022-12-29T11:08:55.100Z,5.77
2022-12-29T11:13:52.584Z,4.93
2022-12-29T11:18:48.964Z,4.00
2022-12-29T11:23:43.650Z,4.17
2022-12-29T11:28:38.958Z,3.80
2022-12-29T11:33:35.401Z,4.03
2022-12-29T11:38:36.130Z,4.10
2022-12-29T11:43:37.163Z,4.00
2022-12-29T11:48:36.028Z,3.80
2022-12-29T11:53:35.079Z,4.07
2022-12-29T11:58:33.783Z,4.10
2022-12-29T12:03:30.356Z,4.05
2022-12-29T12:08:36.142Z,3.53
2022-12-29T12:13:34.502Z,2.90
2022-12-29T12:18:44.633Z,4.05
2022-12-29T12:24:00.851Z,4.05
2022-12-29T12:28:58.087Z,3.63
2022-12-29T12:33:55.897Z,4.05
2022-12-29T12:38:57.367Z,4.00
2022-12-29T12:43:53.910Z,2.45
2022-12-29T12:49:00.974Z,2.78
2022-12-29T12:54:12.083Z,2.00
2022-12-29T12:59:15.303Z,2.65
2022-12-29T13:04:37.880Z,1.98
2022-12-29T13:09:52.466Z,2.45
2022-12-29T13:15:01.525Z,2.10
2022-12-29T13:20:03.886Z,1.77
2022-12-29T13:25:17.949Z,2.40
2022-12-29T13:30:15.183Z,3.47
2022-12-29T13:35:21.819Z,4.13
2022-12-29T13:40:20.905Z,3.90
2022-12-29T13:45:18.462Z,5.00
2022-12-29T13:50:18.070Z,5.73
2022-12-29T13:55:29.578Z,5.07
2022-12-29T14:00:24.449Z,5.33
2022-12-29T14:05:32.216Z,4.47
2022-12-29T14:10:33.425Z,4.77
2022-12-29T14:15:29.063Z,5.00
2022-12-29T14:20:25.248Z,5.30
2022-12-29T14:25:52.040Z,5.30
2022-12-29T14:30:57.116Z,5.00
2022-12-29T14:35:53.520Z,5.33
2022-12-29T14:40:47.914Z,6.03
2022-12-29T14:45:44.533Z,7.40
2022-12-29T14:50:44.048Z,8.47
2022-12-29T14:55:42.821Z,8.77
2022-12-29T15:00:39.047Z,8.20
2022-12-29T15:05:37.940Z,12.20
2022-12-29T15:10:41.882Z,9.77
2022-12-29T15:15:40.671Z,7.77
2022-12-29T15:20:35.851Z,9.20
2022-12-29T15:25:29.464Z,11.73
2022-12-29T15:30:25.677Z,10.20
2022-12-29T15:35:29.458Z,10.50
2022-12-29T15:40:31.842Z,11.53
2022-12-29T15:45:33.859Z,13.47
2022-12-29T15:50:31.561Z,19.20
2022-12-29T15:55:30.838Z,15.33
2022-12-29T16:00:27.334Z,10.80
2022-12-29T16:05:23.322Z,14.77
